Terminal Aerodrome Forecast
Issued by NWS

Home | Current Version | Previous Version | Text Only | Print | Product List | Glossary On
Versions: 1 2 3 4 5 6 7 8 9 10 11 12
000
FTUS46 KLOX 242300 RRA
TAFBUR
TAF
KBUR 242347Z 2500/2524 15008KT P6SM SKC
     FM250300 VRB03KT P6SM SKC
     FM251200 VRB03KT P6SM BKN007 BKN200
     FM251600 VRB03KT P6SM SCT010
     FM251800 16008KT P6SM SCT200=

USA.gov is the U.S. government's official web portal to all federal, state and local government web resources and services.